createdAt,value
2018-10-02T00:00:18.816Z,97126.93
2018-10-02T00:02:47.955Z,97132.09
2018-10-02T00:05:17.760Z,97133.56
2018-10-02T00:07:47.735Z,97134.12
2018-10-02T00:10:17.723Z,97137.38
2018-10-02T00:12:52.958Z,97135.48
2018-10-02T00:15:22.115Z,97136.09
2018-10-02T00:17:51.272Z,97134.87
2018-10-02T00:20:20.722Z,97140.80
2018-10-02T00:22:49.870Z,97135.15
2018-10-02T00:25:19.034Z,97139.17
2018-10-02T00:27:48.180Z,97145.22
2018-10-02T00:30:17.687Z,97142.20
2018-10-02T00:32:47.762Z,97145.48
2018-10-02T00:35:16.918Z,97138.81
2018-10-02T00:37:46.086Z,97142.13
2018-10-02T00:40:15.226Z,97137.36
2018-10-02T00:42:44.359Z,97135.59
2018-10-02T00:45:13.499Z,97140.36
2018-10-02T00:47:42.650Z,97135.09
2018-10-02T00:50:11.823Z,97136.48
2018-10-02T00:52:41.010Z,97134.12
2018-10-02T00:55:10.137Z,97137.28
2018-10-02T00:57:39.279Z,97135.97
2018-10-02T01:00:08.462Z,97138.28
2018-10-02T01:02:37.609Z,97141.38
2018-10-02T01:05:06.903Z,97148.84
2018-10-02T01:07:36.062Z,97148.92
2018-10-02T01:10:05.203Z,97148.20
2018-10-02T01:12:34.334Z,97148.00
2018-10-02T01:15:03.492Z,97145.44
2018-10-02T01:17:32.635Z,97141.17
2018-10-02T01:20:01.794Z,97150.11
2018-10-02T01:22:30.965Z,97149.92
2018-10-02T01:25:00.120Z,97151.99
2018-10-02T01:27:29.570Z,97146.80
2018-10-02T01:29:58.725Z,97142.06
2018-10-02T01:32:27.912Z,97141.62
2018-10-02T01:34:57.143Z,97138.05
2018-10-02T01:37:26.285Z,97142.48
2018-10-02T01:39:55.439Z,97140.00
2018-10-02T01:42:24.587Z,97141.29
2018-10-02T01:44:54.119Z,97139.91
2018-10-02T01:47:23.250Z,97145.19
2018-10-02T01:49:52.394Z,97147.13
2018-10-02T01:52:21.521Z,97147.84
2018-10-02T01:54:50.678Z,97151.88
2018-10-02T01:57:19.846Z,97150.33
2018-10-02T01:59:48.982Z,97157.53
2018-10-02T02:02:18.126Z,97149.34
2018-10-02T02:04:47.966Z,97149.45
2018-10-02T02:07:17.098Z,97159.48
2018-10-02T02:09:46.227Z,97155.03
2018-10-02T02:12:15.366Z,97148.52
2018-10-02T02:14:44.610Z,97158.55
2018-10-02T02:17:13.749Z,97162.24
2018-10-02T02:19:42.882Z,97166.19
2018-10-02T02:22:12.142Z,97164.23
2018-10-02T02:24:41.272Z,97164.66
2018-10-02T02:27:10.405Z,97167.35
2018-10-02T02:29:39.886Z,97166.54
2018-10-02T02:32:09.042Z,97169.23
2018-10-02T02:34:38.190Z,97170.98
2018-10-02T02:37:07.822Z,97163.99
2018-10-02T02:39:36.958Z,97163.53
2018-10-02T02:42:06.117Z,97165.03
2018-10-02T02:44:35.267Z,97162.22
2018-10-02T02:47:09.530Z,97163.60
2018-10-02T02:49:43.878Z,97163.48
2018-10-02T02:52:13.663Z,97160.98
2018-10-02T02:54:42.814Z,97165.17
2018-10-02T02:57:11.967Z,97165.81
2018-10-02T02:59:41.375Z,97163.30
2018-10-02T03:02:10.526Z,97167.13
2018-10-02T03:04:39.677Z,97167.91
2018-10-02T03:07:08.825Z,97168.34
2018-10-02T03:09:37.966Z,97173.75
2018-10-02T03:12:07.143Z,97173.09
2018-10-02T03:14:36.278Z,97182.05
2018-10-02T03:17:05.429Z,97174.15
2018-10-02T03:19:34.598Z,97182.79
2018-10-02T03:22:03.759Z,97183.97
2018-10-02T03:24:32.883Z,97190.06
2018-10-02T03:27:02.029Z,97193.52
2018-10-02T03:29:31.154Z,97188.41
2018-10-02T03:32:00.349Z,97187.63
2018-10-02T03:34:29.558Z,97188.23
2018-10-02T03:36:58.706Z,97186.50
2018-10-02T03:39:27.858Z,97182.61
2018-10-02T03:41:56.981Z,97186.63
2018-10-02T03:44:26.113Z,97186.14
2018-10-02T03:46:55.314Z,97178.02
2018-10-02T03:49:24.453Z,97181.95
2018-10-02T03:51:53.598Z,97179.89
2018-10-02T03:54:22.731Z,97178.58
2018-10-02T03:56:51.874Z,97182.16
2018-10-02T03:59:21.001Z,97185.31
2018-10-02T04:01:50.134Z,97176.47
2018-10-02T04:04:19.253Z,97184.08
2018-10-02T04:06:48.382Z,97186.83
2018-10-02T04:09:18.270Z,97191.12
2018-10-02T04:11:48.250Z,97195.15
2018-10-02T04:14:18.176Z,97195.33
2018-10-02T04:16:48.214Z,97199.84
2018-10-02T04:19:18.202Z,97200.70
2018-10-02T04:21:48.214Z,97204.33
2018-10-02T04:24:18.214Z,97200.97
2018-10-02T04:26:48.366Z,97197.73
2018-10-02T04:29:18.386Z,97201.36
2018-10-02T04:31:48.242Z,97205.43
2018-10-02T04:34:18.280Z,97200.66
2018-10-02T04:36:48.315Z,97204.36
2018-10-02T04:39:18.291Z,97198.95
2018-10-02T04:41:48.287Z,97191.88
2018-10-02T04:49:23.126Z,97180.20
2018-10-02T04:51:52.283Z,97192.70
2018-10-02T04:54:21.489Z,97186.77
2018-10-02T04:56:50.629Z,97189.84
2018-10-02T04:59:20.003Z,97193.64
2018-10-02T05:01:49.141Z,97189.39
2018-10-02T05:04:18.385Z,97200.50
2018-10-02T05:06:48.747Z,97202.63
2018-10-02T05:09:18.721Z,97201.81
2018-10-02T05:11:48.506Z,97189.91
2018-10-02T05:14:18.503Z,97183.80
2018-10-02T05:16:48.591Z,97187.01
2018-10-02T05:19:18.421Z,97187.39
2018-10-02T05:21:48.406Z,97194.59
2018-10-02T05:24:18.386Z,97195.36
2018-10-02T05:26:48.390Z,97192.46
2018-10-02T05:29:18.534Z,97195.13
2018-10-02T05:31:48.463Z,97192.61
2018-10-02T05:34:18.415Z,97188.30
2018-10-02T05:36:48.534Z,97186.20
2018-10-02T05:39:17.847Z,97180.98
2018-10-02T05:41:46.979Z,97185.08
2018-10-02T05:44:16.156Z,97194.39
2018-10-02T05:46:45.289Z,97190.59
2018-10-02T05:49:14.435Z,97193.56
2018-10-02T05:51:43.556Z,97199.42
2018-10-02T05:54:12.767Z,97199.23
2018-10-02T05:56:41.890Z,97204.80
2018-10-02T05:59:11.026Z,97213.39
2018-10-02T06:01:40.151Z,97221.16
2018-10-02T06:04:09.506Z,97225.26
2018-10-02T06:06:38.650Z,97217.09
2018-10-02T06:09:10.947Z,97206.88
2018-10-02T06:11:40.131Z,97212.25
2018-10-02T06:14:10.038Z,97209.08
2018-10-02T06:16:39.194Z,97211.13
2018-10-02T06:19:08.550Z,97216.16
2018-10-02T06:21:37.734Z,97228.58
2018-10-02T06:24:07.134Z,97231.73
2018-10-02T06:26:36.281Z,97231.20
2018-10-02T06:29:05.450Z,97239.56
2018-10-02T06:31:34.623Z,97247.70
2018-10-02T06:34:03.762Z,97241.19
2018-10-02T06:36:32.901Z,97236.81
2018-10-02T06:39:02.071Z,97233.58
2018-10-02T06:41:31.217Z,97240.32
2018-10-02T06:44:01.101Z,97237.64
2018-10-02T06:46:30.230Z,97239.08
2018-10-02T06:48:59.363Z,97241.19
2018-10-02T06:51:28.556Z,97237.97
2018-10-02T06:53:57.722Z,97242.78
2018-10-02T06:56:26.919Z,97236.99
2018-10-02T06:58:56.002Z,97244.56
2018-10-02T07:01:25.143Z,97247.98
2018-10-02T07:03:54.295Z,97246.39
2018-10-02T07:06:23.429Z,97249.23
2018-10-02T07:08:52.626Z,97244.88
2018-10-02T07:11:21.712Z,97239.56
2018-10-02T07:13:50.873Z,97237.20
2018-10-02T07:16:20.031Z,97232.99
2018-10-02T07:18:49.198Z,97227.31
2018-10-02T07:21:18.731Z,97229.57
2018-10-02T07:23:48.752Z,97239.56
2018-10-02T07:26:18.714Z,97235.20
2018-10-02T07:28:48.718Z,97246.53
2018-10-02T07:31:18.914Z,97252.78
2018-10-02T07:33:49.809Z,97256.83
2018-10-02T07:36:18.882Z,97260.29
2018-10-02T07:38:48.773Z,97253.81
2018-10-02T07:41:18.778Z,97252.69
2018-10-02T07:43:48.823Z,97254.43
2018-10-02T07:46:18.738Z,97260.77
2018-10-02T07:48:48.829Z,97256.50
2018-10-02T07:51:18.898Z,97259.66
2018-10-02T07:53:48.925Z,97255.11
2018-10-02T07:56:18.871Z,97247.25
2018-10-02T07:58:48.830Z,97250.11
2018-10-02T08:01:18.815Z,97256.95
2018-10-02T08:03:48.826Z,97262.44
2018-10-02T08:06:18.798Z,97260.30
2018-10-02T08:08:48.907Z,97260.06
2018-10-02T08:11:18.810Z,97253.53
2018-10-02T08:13:48.906Z,97253.59
2018-10-02T08:16:18.819Z,97251.39
2018-10-02T08:18:48.834Z,97266.95
2018-10-02T08:21:18.846Z,97256.85
2018-10-02T08:23:48.885Z,97256.85
2018-10-02T08:26:18.883Z,97250.22
2018-10-02T08:28:48.970Z,97247.67
2018-10-02T08:31:18.931Z,97243.62
2018-10-02T08:33:48.934Z,97233.59
2018-10-02T08:36:19.282Z,97240.83
2018-10-02T08:38:48.983Z,97236.28
2018-10-02T08:41:18.894Z,97238.05
2018-10-02T08:43:48.996Z,97232.34
2018-10-02T08:46:18.930Z,97235.48
2018-10-02T08:48:49.186Z,97232.75
2018-10-02T08:51:18.954Z,97233.13
2018-10-02T08:53:49.011Z,97231.42
2018-10-02T08:56:18.897Z,97230.70
2018-10-02T08:58:49.005Z,97225.86
2018-10-02T09:01:19.015Z,97233.86
2018-10-02T09:03:48.923Z,97234.88
2018-10-02T09:06:19.046Z,97237.20
2018-10-02T09:08:48.945Z,97238.50
2018-10-02T09:11:18.978Z,97237.62
2018-10-02T09:13:48.143Z,97239.14
2018-10-02T09:16:17.996Z,97241.67
2018-10-02T09:18:47.090Z,97244.52
2018-10-02T09:21:16.234Z,97244.80
2018-10-02T09:23:45.374Z,97256.97
2018-10-02T09:26:14.506Z,97261.17
2018-10-02T09:28:43.760Z,97253.69
2018-10-02T09:31:17.947Z,97251.23
2018-10-02T09:33:52.339Z,97248.22
2018-10-02T09:36:26.796Z,97239.38
2018-10-02T09:39:01.054Z,97239.98
2018-10-02T09:41:35.402Z,97239.66
2018-10-02T09:44:05.029Z,97239.69
2018-10-02T09:46:34.168Z,97236.73
2018-10-02T09:49:03.393Z,97228.96
2018-10-02T09:51:32.526Z,97236.41
2018-10-02T09:54:01.650Z,97237.81
2018-10-02T09:56:36.086Z,97243.19
2018-10-02T09:59:05.206Z,97245.55
2018-10-02T10:01:39.574Z,97241.20
2018-10-02T10:04:08.717Z,97234.80
2018-10-02T10:06:37.853Z,97236.33
2018-10-02T10:09:08.785Z,97235.41
2018-10-02T10:11:37.970Z,97238.74
2018-10-02T10:14:07.128Z,97238.14
2018-10-02T10:16:36.390Z,97231.16
2018-10-02T10:19:05.794Z,97231.23
2018-10-02T10:21:34.986Z,97225.25
2018-10-02T10:24:04.150Z,97230.52
2018-10-02T10:26:33.364Z,97225.27
2018-10-02T10:29:02.499Z,97239.17
2018-10-02T10:31:31.582Z,97231.75
2018-10-02T10:34:01.374Z,97240.69
2018-10-02T10:36:30.518Z,97230.34
2018-10-02T10:38:59.658Z,97227.48
2018-10-02T10:41:28.814Z,97221.80
2018-10-02T10:43:57.950Z,97218.25
2018-10-02T10:46:27.097Z,97220.17
2018-10-02T10:48:56.241Z,97217.75
2018-10-02T10:51:25.365Z,97214.30
2018-10-02T10:53:54.507Z,97213.06
2018-10-02T10:56:23.705Z,97217.03
2018-10-02T10:58:52.849Z,97217.02
2018-10-02T11:01:21.934Z,97226.76
2018-10-02T11:03:51.074Z,97215.88
2018-10-02T11:06:20.245Z,97216.30
2018-10-02T11:08:49.514Z,97212.85
2018-10-02T11:11:19.199Z,97210.22
2018-10-02T11:13:49.272Z,97204.73
2018-10-02T11:16:19.202Z,97205.56
2018-10-02T11:18:49.248Z,97204.63
2018-10-02T11:21:19.265Z,97212.88
2018-10-02T11:23:49.240Z,97209.81
2018-10-02T11:26:19.277Z,97203.94
2018-10-02T11:28:49.246Z,97205.05
2018-10-02T11:31:19.543Z,97206.97
2018-10-02T11:33:49.418Z,97211.44
2018-10-02T11:36:19.271Z,97202.16
2018-10-02T11:38:49.341Z,97193.95
2018-10-02T11:41:19.314Z,97187.03
2018-10-02T11:43:49.389Z,97179.67
2018-10-02T11:46:19.514Z,97179.39
2018-10-02T11:48:49.285Z,97182.40
2018-10-02T11:51:19.524Z,97176.53
2018-10-02T11:53:49.383Z,97178.20
2018-10-02T11:56:19.519Z,97166.44
2018-10-02T11:58:49.323Z,97164.34
2018-10-02T12:01:19.415Z,97153.72
2018-10-02T12:03:49.408Z,97155.86
2018-10-02T12:06:19.367Z,97150.58
2018-10-02T12:08:49.415Z,97160.67
2018-10-02T12:11:19.526Z,97154.66
2018-10-02T12:13:49.493Z,97155.45
2018-10-02T12:16:19.514Z,97155.78
2018-10-02T12:18:49.358Z,97158.80
2018-10-02T12:21:19.524Z,97146.63
2018-10-02T12:23:49.483Z,97158.72
2018-10-02T12:26:19.579Z,97167.48
2018-10-02T12:28:49.431Z,97160.67
2018-10-02T12:31:19.601Z,97160.67
2018-10-02T12:33:49.478Z,97149.56
2018-10-02T12:36:19.478Z,97155.55
2018-10-02T12:38:49.584Z,97151.88
2018-10-02T12:41:19.519Z,97151.09
2018-10-02T12:43:49.415Z,97147.58
2018-10-02T12:46:19.548Z,97146.72
2018-10-02T12:48:49.429Z,97140.09
2018-10-02T12:51:20.739Z,97135.48
2018-10-02T12:53:49.814Z,97132.38
2018-10-02T12:56:19.467Z,97136.67
2018-10-02T12:58:49.488Z,97141.66
2018-10-02T13:01:19.598Z,97140.25
2018-10-02T13:03:49.573Z,97130.23
2018-10-02T13:06:19.579Z,97129.22
2018-10-02T13:08:49.599Z,97125.60
2018-10-02T13:11:19.582Z,97122.41
2018-10-02T13:13:49.570Z,97128.22
2018-10-02T13:16:19.550Z,97125.05
2018-10-02T13:18:49.837Z,97122.23
2018-10-02T13:21:19.587Z,97129.86
2018-10-02T13:23:49.602Z,97124.08
2018-10-02T13:26:19.614Z,97118.66
2018-10-02T13:28:49.646Z,97116.25
2018-10-02T13:31:19.665Z,97114.53
2018-10-02T13:33:49.610Z,97125.42
2018-10-02T13:36:19.578Z,97116.49
2018-10-02T13:38:49.601Z,97107.72
2018-10-02T13:41:19.679Z,97104.47
2018-10-02T13:43:49.647Z,97104.98
2018-10-02T13:46:19.674Z,97103.75
2018-10-02T13:48:56.269Z,97105.86
2018-10-02T13:51:25.397Z,97108.56
2018-10-02T13:53:54.537Z,97105.41
2018-10-02T13:56:23.667Z,97109.35
2018-10-02T13:58:52.814Z,97103.23
2018-10-02T14:01:22.001Z,97097.78
2018-10-02T14:03:51.116Z,97106.29
2018-10-02T14:06:20.249Z,97105.19
2018-10-02T14:08:50.775Z,97100.72
2018-10-02T14:11:19.902Z,97106.93
2018-10-02T14:13:49.757Z,97100.32
2018-10-02T14:16:19.775Z,97102.75
2018-10-02T14:18:49.696Z,97099.42
2018-10-02T14:21:19.653Z,97096.89
2018-10-02T14:23:49.687Z,97090.66
2018-10-02T14:26:19.731Z,97093.33
2018-10-02T14:28:49.754Z,97086.62
2018-10-02T14:31:19.773Z,97076.58
2018-10-02T14:33:49.785Z,97079.41
2018-10-02T14:36:19.706Z,97082.00
2018-10-02T14:38:49.718Z,97083.47
2018-10-02T14:41:19.741Z,97073.52
2018-10-02T14:43:49.800Z,97074.55
2018-10-02T14:46:19.767Z,97078.45
2018-10-02T14:48:49.810Z,97070.86
2018-10-02T14:51:19.810Z,97079.00
2018-10-02T14:53:49.777Z,97079.06
2018-10-02T14:56:19.867Z,97080.17
2018-10-02T14:58:49.922Z,97070.56
2018-10-02T15:01:19.058Z,97067.09
2018-10-02T15:03:48.202Z,97065.89
2018-10-02T15:06:17.335Z,97067.13
2018-10-02T15:08:46.466Z,97069.59
2018-10-02T15:11:15.632Z,97069.00
2018-10-02T15:13:44.790Z,97074.96
2018-10-02T15:16:13.923Z,97065.98
2018-10-02T15:18:43.058Z,97066.77
2018-10-02T15:21:12.215Z,97074.58
2018-10-02T15:23:41.350Z,97068.66
2018-10-02T15:26:10.507Z,97068.42
2018-10-02T15:28:39.627Z,97071.23
2018-10-02T15:31:08.778Z,97068.24
2018-10-02T15:33:37.910Z,97067.09
2018-10-02T15:36:07.071Z,97072.46
2018-10-02T15:38:36.200Z,97068.14
2018-10-02T15:41:05.337Z,97070.97
2018-10-02T15:43:34.476Z,97071.97
2018-10-02T15:46:03.626Z,97069.55
2018-10-02T15:48:32.751Z,97067.33
2018-10-02T15:51:01.963Z,97064.31
2018-10-02T15:53:31.032Z,97062.84
2018-10-02T15:56:00.175Z,97062.61
2018-10-02T15:58:29.550Z,97069.00
2018-10-02T16:00:58.717Z,97064.14
2018-10-02T16:03:27.925Z,97070.35
2018-10-02T16:05:57.046Z,97065.66
2018-10-02T16:08:26.177Z,97070.15
2018-10-02T16:10:55.636Z,97082.03
2018-10-02T16:13:24.825Z,97082.53
2018-10-02T16:15:54.207Z,97076.02
2018-10-02T16:18:23.447Z,97080.83
2018-10-02T16:20:52.651Z,97081.91
2018-10-02T16:23:21.787Z,97089.22
2018-10-02T16:25:51.271Z,97081.53
2018-10-02T16:28:20.394Z,97082.17
2018-10-02T16:30:50.202Z,97082.26
2018-10-02T16:33:19.640Z,97080.06
2018-10-02T16:35:50.757Z,97099.08
2018-10-02T16:38:19.975Z,97098.84
2018-10-02T16:40:50.125Z,97096.60
2018-10-02T16:43:20.089Z,97092.13
2018-10-02T16:45:49.982Z,97096.69
2018-10-02T16:48:20.022Z,97098.81
2018-10-02T16:50:58.469Z,97101.98
2018-10-02T16:53:33.849Z,97103.45
2018-10-02T16:56:02.978Z,97104.80
2018-10-02T16:58:32.206Z,97105.20
2018-10-02T17:01:01.344Z,97104.77
2018-10-02T17:03:30.486Z,97108.73
2018-10-02T17:05:59.630Z,97097.79
2018-10-02T17:08:28.759Z,97101.61
2018-10-02T17:10:57.894Z,97108.55
2018-10-02T17:13:27.038Z,97115.36
2018-10-02T17:15:56.226Z,97120.03
2018-10-02T17:18:25.356Z,97118.50
2018-10-02T17:20:54.503Z,97119.61
2018-10-02T17:23:23.645Z,97117.59
2018-10-02T17:25:52.802Z,97119.73
2018-10-02T17:28:21.928Z,97118.63
2018-10-02T17:30:51.162Z,97114.47
2018-10-02T17:33:20.291Z,97109.77
2018-10-02T17:35:50.126Z,97112.19
2018-10-02T17:38:20.498Z,97111.59
2018-10-02T17:40:50.181Z,97117.67
2018-10-02T17:43:20.173Z,97117.98
2018-10-02T17:45:49.322Z,97130.46
2018-10-02T17:48:18.450Z,97139.09
2018-10-02T17:50:47.630Z,97130.06
2018-10-02T17:53:16.772Z,97133.61
2018-10-02T17:55:45.915Z,97128.12
2018-10-02T17:58:15.107Z,97130.26
2018-10-02T18:00:44.262Z,97122.95
2018-10-02T18:03:13.409Z,97120.44
2018-10-02T18:05:42.663Z,97127.05
2018-10-02T18:08:11.796Z,97133.32
2018-10-02T18:10:40.934Z,97127.13
2018-10-02T18:13:10.066Z,97123.57
2018-10-02T18:15:39.362Z,97122.25
2018-10-02T18:18:08.401Z,97131.69
2018-10-02T18:20:37.602Z,97131.45
2018-10-02T18:23:06.810Z,97139.80
2018-10-02T18:25:36.002Z,97147.21
2018-10-02T18:28:05.102Z,97152.91
2018-10-02T18:30:34.242Z,97151.88
2018-10-02T18:33:03.484Z,97152.30
2018-10-02T18:35:32.553Z,97157.97
2018-10-02T18:38:01.700Z,97162.34
2018-10-02T18:40:30.842Z,97165.89
2018-10-02T18:43:00.109Z,97164.98
2018-10-02T18:45:29.257Z,97167.83
2018-10-02T18:47:58.475Z,97174.11
2018-10-02T18:50:27.857Z,97177.66
2018-10-02T18:52:57.066Z,97173.42
2018-10-02T18:55:26.350Z,97185.06
2018-10-02T18:57:55.563Z,97185.27
2018-10-02T19:00:24.694Z,97176.16
2018-10-02T19:02:53.827Z,97182.76
2018-10-02T19:05:22.965Z,97197.96
2018-10-02T19:07:52.361Z,97198.78
2018-10-02T19:10:21.502Z,97198.48
2018-10-02T19:12:50.629Z,97199.28
2018-10-02T19:15:20.458Z,97205.78
2018-10-02T19:17:50.654Z,97205.97
2018-10-02T19:20:25.726Z,97209.73
2018-10-02T19:22:54.917Z,97213.99
2018-10-02T19:25:29.559Z,97222.11
2018-10-02T19:27:58.702Z,97219.58
2018-10-02T19:30:33.134Z,97222.41
2018-10-02T19:33:02.363Z,97232.06
2018-10-02T19:35:31.490Z,97228.53
2018-10-02T19:39:06.511Z,97226.08
2018-10-02T19:41:35.688Z,97214.70
2018-10-02T19:44:04.811Z,97217.93
2018-10-02T19:46:51.811Z,97217.35
2018-10-02T19:49:23.295Z,97219.05
2018-10-02T19:52:00.554Z,97223.02
2018-10-02T19:54:29.751Z,97216.59
2018-10-02T19:56:58.915Z,97208.78
2018-10-02T19:59:28.139Z,97213.23
2018-10-02T20:01:57.279Z,97221.89
2018-10-02T20:04:26.447Z,97222.50
2018-10-02T20:06:55.641Z,97219.77
2018-10-02T20:09:24.787Z,97222.00
2018-10-02T20:11:53.946Z,97216.41
2018-10-02T20:14:23.165Z,97218.32
2018-10-02T20:16:52.303Z,97222.80
2018-10-02T20:19:21.442Z,97214.90
2018-10-02T20:21:50.578Z,97228.90
2018-10-02T20:24:20.594Z,97226.65
2018-10-02T20:26:50.799Z,97229.92
2018-10-02T20:29:20.586Z,97238.84
2018-10-02T20:31:52.366Z,97239.74
2018-10-02T20:34:21.516Z,97244.73
2018-10-02T20:36:50.722Z,97244.73
2018-10-02T20:39:20.590Z,97250.41
2018-10-02T20:41:50.603Z,97255.28
2018-10-02T20:44:20.659Z,97261.09
2018-10-02T20:46:50.562Z,97262.92
2018-10-02T20:49:20.751Z,97254.36
2018-10-02T20:51:50.626Z,97256.80
2018-10-02T20:54:19.834Z,97251.55
2018-10-02T20:56:48.982Z,97236.61
2018-10-02T20:59:18.122Z,97241.48
2018-10-02T21:01:47.312Z,97240.84
2018-10-02T21:04:16.465Z,97232.61
2018-10-02T21:06:45.615Z,97235.00
2018-10-02T21:09:14.756Z,97231.42
2018-10-02T21:11:43.897Z,97227.17
2018-10-02T21:14:13.037Z,97227.06
2018-10-02T21:16:42.166Z,97222.52
2018-10-02T21:19:11.314Z,97221.50
2018-10-02T21:21:40.581Z,97220.16
2018-10-02T21:24:09.689Z,97220.28
2018-10-02T21:26:38.834Z,97223.95
2018-10-02T21:29:07.974Z,97214.50
2018-10-02T21:31:37.182Z,97205.86
2018-10-02T21:34:06.287Z,97210.03
2018-10-02T21:36:35.466Z,97218.13
2018-10-02T21:39:06.006Z,97211.94
2018-10-02T21:41:35.186Z,97210.03
2018-10-02T21:44:04.414Z,97213.07
2018-10-02T21:46:33.549Z,97208.89
2018-10-02T21:49:02.699Z,97209.19
2018-10-02T21:51:31.838Z,97212.75
2018-10-02T21:54:00.978Z,97224.01
2018-10-02T21:56:30.119Z,97220.88
2018-10-02T21:58:59.397Z,97222.81
2018-10-02T22:01:30.541Z,97224.63
2018-10-02T22:03:59.714Z,97225.25
2018-10-02T22:06:28.845Z,97219.77
2018-10-02T22:08:58.001Z,97220.17
2018-10-02T22:11:27.221Z,97222.91
2018-10-02T22:13:56.349Z,97225.34
2018-10-02T22:16:25.490Z,97229.31
2018-10-02T22:18:54.643Z,97229.30
2018-10-02T22:21:23.798Z,97227.75
2018-10-02T22:23:52.941Z,97219.75
2018-10-02T22:26:22.083Z,97227.89
2018-10-02T22:28:51.234Z,97217.94
2018-10-02T22:31:20.850Z,97219.46
2018-10-02T22:33:50.870Z,97212.55
2018-10-02T22:36:20.922Z,97207.59
2018-10-02T22:38:51.010Z,97212.77
2018-10-02T22:41:20.838Z,97206.89
2018-10-02T22:43:51.016Z,97208.12
2018-10-02T22:46:20.939Z,97202.31
2018-10-02T22:48:50.922Z,97206.70
2018-10-02T22:51:21.962Z,97204.36
2018-10-02T22:53:51.119Z,97211.47
2018-10-02T22:56:20.919Z,97210.73
2018-10-02T22:58:51.025Z,97209.85
2018-10-02T23:01:21.206Z,97212.06
2018-10-02T23:03:51.031Z,97213.28
2018-10-02T23:06:20.895Z,97212.78
2018-10-02T23:08:51.150Z,97213.98
2018-10-02T23:11:21.014Z,97216.52
2018-10-02T23:13:50.941Z,97225.56
2018-10-02T23:16:20.913Z,97221.50
2018-10-02T23:18:50.998Z,97221.50
2018-10-02T23:21:20.981Z,97223.65
2018-10-02T23:23:50.998Z,97219.19
2018-10-02T23:26:21.023Z,97219.27
2018-10-02T23:28:51.034Z,97216.33
2018-10-02T23:31:21.044Z,97215.73
2018-10-02T23:33:51.067Z,97205.06
2018-10-02T23:36:21.018Z,97207.59
2018-10-02T23:38:51.034Z,97202.84
2018-10-02T23:41:21.007Z,97203.73
2018-10-02T23:43:51.038Z,97199.58
2018-10-02T23:46:21.058Z,97198.45
2018-10-02T23:48:51.058Z,97194.59
2018-10-02T23:51:21.086Z,97195.61
2018-10-02T23:53:51.012Z,97202.72
2018-10-02T23:56:21.201Z,97193.80
2018-10-02T23:58:51.173Z,97189.54
